METAR Data
IDs: Format: Raw Decoded Include TAF

Data at: 1430 UTC 12 Dec 2018

PAIG 121356Z AUTO 19009KT 10SM BKN060 OVC075 M13/M14 A2923 RMK AO2 SLP910 T11281144 FZRANO $
PAIG 121256Z AUTO 18009KT 10SM OVC060 M14/M15 A2922 RMK AO2 SLP906 T11391150 FZRANO $
PAIG 121156Z AUTO 18008KT 10SM CLR M16/M17 A2921 RMK AO2 SLP902 70003 T11611172 11133 21167 53011 FZRANO $
PAIG 121056Z AUTO 18008KT 10SM CLR M17/M18 A2920 RMK AO2 SLP897 T11671178 FZRANO $
PAIG 120956Z AUTO 18008KT 10SM CLR M16/M17 A2919 RMK AO2 SLP895 T11561167 FZRANO $
PAIG 120856Z AUTO 18007KT 10SM CLR M16/M17 A2918 RMK AO2 SLP891 T11611172 410061161 51008 FZRANO $
PAIG 120756Z AUTO 18007KT 10SM CLR M15/M16 A2917 RMK AO2 SLP889 T11501161 FZRANO $
PAIG 120656Z AUTO 21007KT 10SM CLR M13/M14 A2916 RMK AO2 SLP885 T11331144 FZRANO $
PAIG 120556Z AUTO 19008KT 10SM CLR M14/M15 A2915 RMK AO2 SLP883 60000 T11391150 11056 21144 53007 FZRANO $
PAIG 120456Z AUTO 17006KT 10SM CLR M14/M15 A2914 RMK AO2 SLP879 T11391150 FZRANO $
PAIG 120356Z AUTO 18008KT 10SM CLR M12/M14 A2914 RMK AO2 SLP879 T11171139 FZRANO $
PAIG 120256Z AUTO 19007KT 10SM FEW050 M08/M11 A2913 RMK AO2 SLP876 60000 T10831106 51007 FZRANO $
PAIG 120156Z AUTO 19007KT 10SM SCT040 OVC055 M06/M08 A2913 RMK AO2 SNB05E20 SLP875 P0000 T10611083 FZRANO $
PAIG 120056Z AUTO 21008KT 10SM FEW048 OVC080 M06/M08 A2912 RMK AO2 SNE20 SLP872 P0000 T10561078 FZRANO $
PAIG 112356Z AUTO 22008KT 9SM -SN FEW039 BKN065 OVC075 M06/M07 A2911 RMK AO2 SLP868 P0000 60002 T10561072 11056 21067 51019 FZRANO $
PAIG 112256Z AUTO 22011KT 5SM -SN BR BKN036 OVC045 M06/M07 A2909 RMK AO2 SLP863 P0000 T10611067 FZRANO $
PAIG 112156Z AUTO 21010KT 8SM -SN FEW009 BKN049 OVC060 M06/M07 A2907 RMK AO2 SLP856 P0000 T10611067 FZRANO $
PAIG 112142Z AUTO 20010KT 4SM -SN BR FEW023 BKN036 OVC047 M06/M07 A2907 RMK AO2 P0000 FZRANO $
PAIG 112134Z AUTO 20011KT 2SM -SN BR FEW010 SCT021 OVC034 M06/M07 A2907 RMK AO2 VIS 3/4V4 P0000 FZRANO $
PAIG 112121Z AUTO 20010KT 1 3/4SM -SN BR FEW007 BKN021 OVC034 M06/M07 A2906 RMK AO2 P0000 FZRANO $
PAIG 112110Z AUTO 20008KT 2 1/2SM -SN BR BKN010 BKN019 OVC034 M06/M06 A2906 RMK AO2 VIS 1 3/4V3 CIG 007V012 P0000 FZRANO $
PAIG 112056Z AUTO 21008KT 5SM -SN BR BKN010 BKN033 OVC046 M06/M06 A2905 RMK AO2 CIG 007V011 SLP849 P0001 60002 T10561061 51026 FZRANO $
PAIG 112046Z AUTO 21010KT 6SM -SN BR SCT008 BKN031 OVC048 M06/M06 A2904 RMK AO2 P0001 FZRANO $
PAIG 112034Z AUTO 21011KT 3SM -SN BR SCT008 BKN013 OVC032 M06/M06 A2904 RMK AO2 P0001 FZRANO $
PAIG 112029Z AUTO 22010KT 1 3/4SM -SN BR BKN008 BKN015 OVC020 M06/M06 A2904 RMK AO2 CIG 007V011 P0001 FZRANO $
PAIG 112016Z AUTO 22011KT 1 3/4SM -SN BR SCT009 BKN016 OVC021 M06/M06 A2903 RMK AO2 VIS 1 1/4V3 P0000 FZRANO $
PAIG 112014Z AUTO 22011KT 2SM -SN BR SCT009 BKN016 OVC021 M06/M06 A2903 RMK AO2 P0000 FZRANO $
PAIG 111956Z AUTO 20011KT 2 1/2SM -SN BR OVC009 M06/M06 A2902 RMK AO2 VIS 1 3/4V4 CIG 006V011 SLP838 P0000 T10561056 FZRANO $
PAIG 111953Z AUTO 21008KT 2 1/2SM -SN BR OVC009 M06/M06 A2902 RMK AO2 VIS 1 3/4V4 CIG 006V012 P0000 FZRANO $
PAIG 111940Z AUTO 21009KT 1 1/2SM -SN BR OVC009 M06/M06 A2901 RMK AO2 CIG 007V012 P0000 FZRANO $
PAIG 111911Z AUTO 22012KT 1SM -SN BR BKN009 OVC014 M06/M06 A2899 RMK AO2 CIG 007V012 P0000 FZRANO $
PAIG 111856Z AUTO 21012KT 1 3/4SM -SN BR BKN013 OVC019 M06/M06 A2898 RMK AO2 PRESRR SLP823 P0001 T10561056 FZRANO $
PAIG 111852Z AUTO 21011KT 2 1/2SM -SN BR OVC016 M06/M06 A2897 RMK AO2 VIS 1 1/2V5 P0001 FZRANO $
PAIG 111812Z AUTO 22011KT 3SM -SN BR FEW010 OVC016 M06/M06 A2894 RMK AO2 P0000 FZRANO $
PAIG 111803Z AUTO 22012G18KT 2 1/2SM -SN BR FEW008 OVC016 M06/M06 A2893 RMK AO2 VIS 2V3 P0000 FZRANO $
PAIG 111756Z AUTO 22013G18KT 2 1/2SM -SN BR FEW010 OVC014 M06/M06 A2893 RMK AO2 VIS 2V3 SLP806 P0000 60001 T10561056 11011 21056 51046 FZRANO $
PAIG 111744Z AUTO 21014KT 2 1/2SM -SN BR FEW008 OVC014 M06/M06 A2892 RMK AO2 P0000 FZRANO $
PAIG 111720Z AUTO 21013KT 2SM -SN BR OVC012 M05/M05 A2890 RMK AO2 P0000 FZRANO $
PAIG 111709Z AUTO 22012KT 1 3/4SM -SN BR BKN010 OVC018 M05/M05 A2889 RMK AO2 P0000 FZRANO $
PAIG 111702Z AUTO 22014KT 1 3/4SM -SN BR SCT010 OVC018 M05/M05 A2889 RMK AO2 P0000 FZRANO $
PAIG 111656Z AUTO 22011G20KT 2SM -SN BR BKN013 OVC018 M04/M05 A2888 RMK AO2 VIS 1 1/2V3 SLP791 P0000 T10441050 FZRANO $
PAIG 111641Z AUTO 23014G20KT 2 1/2SM -SN BR SCT010 OVC018 M04/M04 A2887 RMK AO2 P0000 FZRANO $
PAIG 111610Z AUTO 23010G19KT 6SM -SN BR BKN012 OVC019 M04/M04 A2885 RMK AO2 P0000 FZRANO $
PAIG 111603Z AUTO 23011G19KT 5SM -SN BR BKN008 BKN014 OVC029 M04/M04 A2884 RMK AO2 CIG 007V012 P0000 FZRANO $
PAIG 111556Z AUTO 23011G16KT 6SM -SN BR FEW008 BKN020 OVC028 M03/M03 A2884 RMK AO2 SLP776 P0000 T10331033 FZRANO $
PAIG 111518Z AUTO 24011G16KT 3SM -SN BR FEW009 BKN015 OVC020 M04/M04 A2881 RMK AO2 P0000 FZRANO $
PAIG 111456Z AUTO 25014G20KT 2SM -SN BR BKN010 OVC016 M04/M04 A2879 RMK AO2 SLP759 P0000 60001 T10391039 53037 FZRANO $
PAIG 111408Z AUTO 25013G21KT 1 3/4SM -SN BR BKN010 OVC014 M03/M03 A2873 RMK AO2 CIG 007V013 PRESRR P0000 FZRANO $
PAIG 111356Z AUTO 25016G20KT 2SM -SN BR OVC010 M03/M03 A2872 RMK AO2 SLP736 P0001 T10281028 FZRANO $
PAIG 111352Z AUTO 25014G19KT 2 1/2SM -SN BR BKN010 OVC014 M03/M03 A2872 RMK AO2 VIS 2V3 CIG 007V011 P0001 FZRANO $
PAIG 111326Z AUTO 25012G22KT 3SM -SN BR BKN010 OVC013 M02/M02 A2870 RMK AO2 CIG 006V011 P0001 FZRANO $
PAIG 111319Z AUTO 25015G22KT 1 3/4SM -SN BR OVC010 M02/M02 A2869 RMK AO2 CIG 007V014 P0001 FZRANO $
PAIG 111256Z AUTO 23010G17KT 2 1/2SM -SN BR OVC012 M01/M01 A2868 RMK AO2 SLP722 P0000 T10111011 FZRANO $
PAIG 111228Z AUTO 19007KT 2 1/2SM -SN BR BKN014 OVC020 M01/M01 A2867 RMK AO2 P0000 FZRANO $
PAIG 111203Z AUTO 20009KT 8SM -SN SCT004 BKN023 OVC065 M01/M01 A2866 RMK AO2 P0000 FZRANO $
PAIG 111156Z AUTO 21007KT 9SM -SN SCT004 BKN010 OVC060 M01/M01 A2865 RMK AO2 SNB46 SLP713 P0000 60001 70012 T10111011 10006 21017 53019 FZRANO $
PAIG 111143Z AUTO 20007KT 7SM BKN004 OVC010 M01/M01 A2865 RMK AO2 FZRANO $
PAIG 111126Z AUTO 22006KT 4SM BR SCT004 OVC010 M01/M01 A2864 RMK AO2 CIG 008V013 FZRANO $
PAIG 111112Z AUTO 21005KT 10SM BKN004 OVC015 M02/M02 A2864 RMK AO2 FZRANO $
PAIG 111104Z AUTO 22005KT 10SM SCT004 OVC015 M02/M02 A2864 RMK AO2 FZRANO $
PAIG 111056Z AUTO 23005KT 10SM OVC017 M01/M01 A2863 RMK AO2 SLP706 T10111011 FZRANO $
PAIG 110956Z AUTO 23003KT 10SM OVC019 M01/M01 A2861 RMK AO2 SLP700 T10111011 FZRANO $
PAIG 110909Z AUTO 00000KT 10SM BKN023 OVC085 M01/M01 A2860 RMK AO2 FZRANO $
PAIG 110856Z AUTO 00000KT 10SM FEW023 OVC085 M01/M01 A2860 RMK AO2 SLP695 60001 T10061006 400221006 53010 FZRANO $